Time;durP1;ratioP1;P1;durP2;ratioP2;P2;SDS_P1;SDS_P2;PMS_P1;PMS_P2;Temp;Humidity;BMP_temperature;BMP_pressure;BME280_temperature;BME280_humidity;BME280_pressure;Samples;Min_cycle;Max_cycle;Signal;HPM_P1;HPM_P2
2022/01/26 00:06:47;;;;;;;23.62;9.68;;;;;;;1.56;93.88;101469.44;4501789;31;20103;-71
2022/01/26 00:09:15;;;;;;;34.92;12.82;;;;;;;1.54;94.04;101473.69;4487077;31;20146;-70
2022/01/26 00:11:42;;;;;;;30.17;11.07;;;;;;;1.53;93.98;101469.31;4501810;31;20175;-71
2022/01/26 00:14:12;;;;;;;32.97;13.50;;;;;;;1.53;94.08;101479.69;4501660;31;20442;-71
2022/01/26 00:16:44;;;;;;;35.28;14.10;;;;;;;1.53;94.06;101477.09;4501835;31;20469;-71
2022/01/26 00:19:27;;;;;;;35.10;15.18;;;;;;;1.44;94.40;101483.66;4501618;31;20100;-71
2022/01/26 00:21:56;;;;;;;35.85;14.38;;;;;;;1.38;94.91;101480.81;4501606;31;20164;-71
2022/01/26 00:27:21;;;;;;;33.33;13.43;;;;;;;1.47;94.48;101479.44;4501680;31;20105;-71
2022/01/26 00:30:00;;;;;;;38.25;13.80;;;;;;;1.40;94.82;101481.75;4501582;31;20096;-71
2022/01/26 00:40:52;;;;;;;37.42;14.52;;;;;;;1.43;94.23;101481.91;4501667;31;20129;-71
2022/01/26 00:43:24;;;;;;;36.75;14.65;;;;;;;1.50;94.19;101483.06;4501554;31;20148;-71
2022/01/26 00:45:56;;;;;;;27.10;12.60;;;;;;;1.63;93.15;101487.94;4501535;31;20143;-71
2022/01/26 00:48:25;;;;;;;39.78;13.62;;;;;;;1.67;93.07;101489.84;4501724;31;20085;-71
2022/01/26 00:50:53;;;;;;;33.85;13.73;;;;;;;1.60;93.58;101487.81;4501364;31;20131;-71
2022/01/26 00:53:27;;;;;;;26.55;13.10;;;;;;;1.67;92.91;101486.38;4501408;31;20108;-71
2022/01/26 00:55:54;;;;;;;29.23;12.23;;;;;;;1.62;93.31;101483.56;4501505;31;20721;-70
2022/01/26 00:58:21;;;;;;;30.85;12.18;;;;;;;1.65;93.04;101486.28;4501381;31;20092;-71
2022/01/26 01:00:49;;;;;;;31.17;11.82;;;;;;;1.58;93.27;101486.84;4501377;31;20092;-71
2022/01/26 01:03:17;;;;;;;36.28;13.90;;;;;;;1.50;93.78;101479.56;4501446;31;20558;-71
2022/01/26 01:05:54;;;;;;;27.27;11.48;;;;;;;1.48;93.94;101481.19;4501280;31;20175;-71
2022/01/26 01:08:23;;;;;;;29.05;11.73;;;;;;;1.45;94.10;101484.56;4501354;31;20080;-71
2022/01/26 01:10:52;;;;;;;40.30;13.27;;;;;;;1.37;94.59;101489.41;4501214;31;20085;-71
2022/01/26 01:13:23;;;;;;;38.55;13.45;;;;;;;1.39;94.51;101486.91;4501427;31;20430;-71
2022/01/26 01:15:51;;;;;;;31.42;12.95;;;;;;;1.47;94.08;101484.63;4500390;31;20080;-71
2022/01/26 01:18:24;;;;;;;36.17;13.85;;;;;;;1.44;93.96;101481.06;4501295;31;20083;-71
2022/01/26 01:34:10;;;;;;;31.73;12.70;;;;;;;1.29;94.76;101482.13;4501044;31;20816;-71
2022/01/26 01:36:40;;;;;;;35.88;14.55;;;;;;;1.05;95.64;101484.53;4501033;31;20159;-71
2022/01/26 01:39:08;;;;;;;28.75;11.82;;;;;;;1.03;96.08;101489.69;4501154;31;20088;-71
2022/01/26 01:41:38;;;;;;;33.28;13.35;;;;;;;0.88;96.93;101476.91;4501062;31;20231;-71
2022/01/26 01:44:08;;;;;;;35.60;14.07;;;;;;;0.93;96.33;101482.28;4500824;31;20111;-71
2022/01/26 01:46:38;;;;;;;33.63;13.80;;;;;;;0.93;96.35;101478.00;4501029;31;20390;-71
2022/01/26 01:49:06;;;;;;;34.72;14.15;;;;;;;0.94;96.49;101477.16;4500847;31;20115;-71
2022/01/26 01:51:37;;;;;;;33.50;12.30;;;;;;;0.77;97.17;101469.44;4500594;31;20080;-71
2022/01/26 01:54:14;;;;;;;28.52;13.68;;;;;;;0.81;97.41;101469.62;4500735;31;20163;-71
2022/01/26 01:56:45;;;;;;;35.42;14.45;;;;;;;0.87;97.35;101476.81;4500712;31;20080;-71
2022/01/26 01:59:12;;;;;;;30.00;11.77;;;;;;;1.00;96.63;101479.16;4500658;31;20071;-71
2022/01/26 02:01:39;;;;;;;31.58;14.23;;;;;;;1.03;96.53;101479.28;4500576;31;20160;-71
2022/01/26 02:04:07;;;;;;;32.40;13.00;;;;;;;1.14;96.04;101477.16;4500519;31;20496;-71
2022/01/26 02:06:35;;;;;;;30.25;12.23;;;;;;;1.16;95.73;101470.31;4500494;31;20084;-71
2022/01/26 02:09:03;;;;;;;36.08;13.52;;;;;;;1.19;95.53;101470.47;4500532;31;20492;-71
2022/01/26 02:11:31;;;;;;;27.27;11.98;;;;;;;1.18;95.60;101468.69;4500317;31;20092;-71
2022/01/26 02:14:10;;;;;;;32.42;13.23;;;;;;;1.14;95.79;101470.25;4500414;31;20685;-71
2022/01/26 02:58:23;;;;;;;36.33;13.38;;;;;;;0.77;97.06;101466.84;4451845;32;20638;-71
2022/01/26 03:03:01;;;;;;;33.85;13.05;;;;;;;0.67;96.87;101463.84;4502254;31;20111;-71
2022/01/26 03:05:34;;;;;;;35.85;13.35;;;;;;;0.66;96.87;101468.97;4502441;31;20492;-71
2022/01/26 03:08:06;;;;;;;29.27;12.75;;;;;;;0.63;97.14;101464.50;4502216;31;20138;-71
2022/01/26 03:10:53;;;;;;;34.63;13.50;;;;;;;0.51;97.55;101466.56;4502242;31;20106;-71
2022/01/26 03:13:26;;;;;;;;;;;;;;;0.32;97.60;101464.84;4502550;31;20130;-71
2022/01/26 03:16:07;;;;;;;27.70;11.77;;;;;;;0.74;96.50;101466.72;4502439;31;19984;-71
2022/01/26 03:18:55;;;;;;;34.83;13.43;;;;;;;0.47;97.42;101455.16;4502292;31;20075;-71
2022/01/26 03:21:29;;;;;;;31.65;13.43;;;;;;;0.41;97.40;101454.88;4502095;31;20100;-71
2022/01/26 03:32:47;;;;;;;29.10;12.37;;;;;;;0.16;97.73;101459.72;4501964;31;20118;-71
2022/01/26 03:35:04;;;;;;;30.67;12.43;;;;;;;0.19;97.70;101460.75;4502056;31;20499;-71
2022/01/26 03:37:38;;;;;;;22.42;10.60;;;;;;;0.27;98.30;101466.31;4501906;31;20099;-71
2022/01/26 03:40:13;;;;;;;31.73;12.65;;;;;;;0.19;98.09;101460.75;4501444;31;20171;-71
2022/01/26 03:42:40;;;;;;;29.00;11.85;;;;;;;0.17;98.71;101461.50;4502002;31;20084;-71
2022/01/26 03:45:08;;;;;;;31.25;12.50;;;;;;;0.21;97.33;101469.50;4501942;31;20084;-71
2022/01/26 03:47:35;;;;;;;47.03;18.98;;;;;;;0.26;97.10;101469.72;4501858;31;20744;-71
2022/01/26 03:50:04;;;;;;;45.08;18.62;;;;;;;0.02;96.65;101472.03;4501937;31;20104;-71
2022/01/26 03:52:31;;;;;;;54.00;23.75;;;;;;;0.14;95.28;101474.31;4501851;31;20495;-71
2022/01/26 03:54:58;;;;;;;64.75;23.70;;;;;;;0.05;94.46;101468.69;4501824;31;20088;-71
2022/01/26 03:57:25;;;;;;;54.53;22.95;;;;;;;0.02;93.93;101469.44;4501861;31;20083;-71
2022/01/26 03:59:52;;;;;;;69.68;25.02;;;;;;;0.10;92.95;101468.09;4501952;31;20088;-71
2022/01/26 04:02:20;;;;;;;53.22;22.23;;;;;;;0.05;92.63;101476.47;4501892;31;20498;-71
2022/01/26 04:04:53;;;;;;;54.70;22.27;;;;;;;0.10;92.20;101474.97;4501940;31;20091;-71
2022/01/26 04:07:21;;;;;;;59.33;23.42;;;;;;;0.34;90.94;101476.12;4501942;31;20091;-71
2022/01/26 04:09:48;;;;;;;48.83;19.27;;;;;;;0.16;91.27;101472.69;4501969;31;20408;-71
2022/01/26 04:12:15;;;;;;;49.17;17.83;;;;;;;0.22;92.47;101460.03;4501948;31;20483;-71
2022/01/26 04:14:48;;;;;;;29.98;13.45;;;;;;;0.55;91.72;101462.41;4501757;31;20100;-71
2022/01/26 04:17:16;;;;;;;29.80;11.95;;;;;;;0.63;92.98;101453.25;4501873;31;20172;-71
2022/01/26 04:19:45;;;;;;;29.02;12.77;;;;;;;0.82;92.68;101461.06;4501912;31;20544;-71
2022/01/26 04:22:20;;;;;;;31.30;12.85;;;;;;;0.85;92.91;101463.81;4487189;31;20118;-71
2022/01/26 04:24:52;;;;;;;29.02;11.48;;;;;;;1.09;92.23;101468.28;4501927;31;20187;-71
2022/01/26 04:27:35;;;;;;;27.05;11.00;;;;;;;1.12;92.17;101458.91;4501886;31;21028;-71
2022/01/26 04:30:05;;;;;;;28.60;11.23;;;;;;;1.27;91.72;101463.00;4501805;31;20437;-71
2022/01/26 04:32:32;;;;;;;30.48;12.18;;;;;;;1.36;91.49;101456.50;4501559;31;20436;-71
2022/01/26 04:35:01;;;;;;;29.48;11.68;;;;;;;1.40;91.32;101453.19;4501823;31;20823;-71
2022/01/26 04:37:43;;;;;;;29.85;12.57;;;;;;;1.43;91.18;101448.13;4501877;31;20208;-71
2022/01/26 04:40:14;;;;;;;26.25;11.25;;;;;;;1.37;91.15;101445.28;4499889;31;20091;-71
2022/01/26 04:43:04;;;;;;;28.20;11.85;;;;;;;1.24;91.73;101447.28;4486984;31;20122;-71
2022/01/26 04:45:31;;;;;;;33.50;12.02;;;;;;;1.13;92.16;101446.81;4501724;31;20511;-71
2022/01/26 04:47:58;;;;;;;28.60;12.57;;;;;;;0.90;92.86;101457.09;4501639;31;20146;-71
2022/01/26 04:50:25;;;;;;;47.58;17.62;;;;;;;0.63;93.71;101453.25;4500539;31;20452;-71
2022/01/26 04:52:52;;;;;;;52.45;22.85;;;;;;;0.57;93.32;101450.41;4501441;31;20106;-71
2022/01/26 04:55:20;;;;;;;55.90;25.67;;;;;;;0.34;92.93;101458.00;4501504;31;20573;-71
2022/01/26 04:57:47;;;;;;;56.88;25.62;;;;;;;0.27;92.19;101453.34;4501406;31;20426;-71
2022/01/26 05:00:15;;;;;;;61.45;24.87;;;;;;;0.18;91.99;101459.00;4501369;31;20107;-71
2022/01/26 05:02:43;;;;;;;64.22;26.30;;;;;;;0.20;91.15;101454.75;4501348;31;20439;-71
2022/01/26 05:05:10;;;;;;;59.55;26.27;;;;;;;0.16;90.74;101463.19;4501482;31;20091;-71
2022/01/26 05:07:38;;;;;;;60.70;25.92;;;;;;;0.16;90.98;101455.44;4501249;31;20099;-71
2022/01/26 05:10:05;;;;;;;65.50;26.15;;;;;;;-0.03;91.88;101453.69;4501232;31;20151;-71
2022/01/26 05:12:34;;;;;;;68.43;26.52;;;;;;;0.06;91.81;101452.31;4501260;31;20444;-71
2022/01/26 05:15:01;;;;;;;60.40;25.55;;;;;;;0.13;90.68;101452.69;4501483;31;20533;-71
2022/01/26 05:17:29;;;;;;;54.20;22.52;;;;;;;0.19;89.82;101440.03;4501206;31;20095;-71
2022/01/26 05:19:59;;;;;;;48.85;18.50;;;;;;;0.39;89.18;101440.97;4501225;31;20091;-71
2022/01/26 05:22:29;;;;;;;38.28;15.30;;;;;;;0.51;89.26;101444.94;4501307;31;20407;-71
2022/01/26 05:24:56;;;;;;;32.67;14.13;;;;;;;0.64;89.68;101439.50;4501540;31;20507;-71
2022/01/26 05:27:24;;;;;;;36.88;16.62;;;;;;;0.62;89.25;101430.75;4500597;31;20088;-71
2022/01/26 05:29:51;;;;;;;37.50;15.30;;;;;;;0.36;91.10;101434.75;4501061;31;20151;-71
2022/01/26 05:32:19;;;;;;;33.42;14.65;;;;;;;0.54;91.45;101437.28;4501073;31;20155;-71
2022/01/26 05:34:46;;;;;;;33.30;14.50;;;;;;;0.89;90.37;101437.16;4501055;31;20440;-71
2022/01/26 05:37:14;;;;;;;30.98;13.75;;;;;;;0.71;90.58;101442.44;4501115;31;20115;-71
2022/01/26 05:39:41;;;;;;;36.50;14.63;;;;;;;0.80;91.25;101435.84;4501057;31;20159;-71
2022/01/26 05:42:08;;;;;;;31.17;13.88;;;;;;;1.02;90.56;101437.69;4500839;31;20087;-71
2022/01/26 05:44:36;;;;;;;39.53;15.18;;;;;;;0.71;91.66;101442.44;4486145;31;20076;-71
2022/01/26 05:47:07;;;;;;;41.72;16.80;;;;;;;0.76;91.67;101445.22;4500803;31;20675;-71
2022/01/26 05:49:34;;;;;;;39.53;16.65;;;;;;;0.73;92.41;101445.06;4500890;31;20733;-70
2022/01/26 05:52:02;;;;;;;52.47;23.25;;;;;;;0.79;92.05;101450.53;4500800;31;20084;-70
2022/01/26 05:54:29;;;;;;;54.17;23.83;;;;;;;0.82;91.47;101455.00;4500650;31;20118;-72
2022/01/26 05:56:56;;;;;;;63.83;25.23;;;;;;;0.85;90.73;101456.00;4500603;31;20091;-71
2022/01/26 05:59:24;;;;;;;57.60;23.35;;;;;;;0.82;90.55;101449.81;4500598;31;20134;-71
2022/01/26 06:01:51;;;;;;;55.78;24.00;;;;;;;0.69;90.55;101459.59;4500948;31;20122;-71
2022/01/26 06:04:19;;;;;;;66.43;26.05;;;;;;;0.56;90.88;101462.47;4502698;31;20155;-72
2022/01/26 06:06:46;;;;;;;56.13;22.73;;;;;;;0.59;90.42;101461.72;4502560;31;20103;-71
2022/01/26 06:09:13;;;;;;;48.72;23.05;;;;;;;0.56;90.44;101467.63;4502365;31;20164;-72
2022/01/26 06:11:40;;;;;;;53.00;22.83;;;;;;;0.58;90.23;101463.44;4502624;31;20127;-71
2022/01/26 06:14:07;;;;;;;57.65;23.83;;;;;;;0.70;89.44;101465.69;4502485;31;20183;-72
2022/01/26 06:16:35;;;;;;;50.58;20.65;;;;;;;0.74;88.87;101469.31;4502390;31;20488;-72
2022/01/26 06:19:02;;;;;;;44.70;18.70;;;;;;;0.76;89.14;101460.78;4502427;31;20111;-73
2022/01/26 06:21:29;;;;;;;46.63;19.50;;;;;;;0.90;89.87;101470.06;4502422;31;20114;-72
2022/01/26 06:23:57;;;;;;;43.65;18.85;;;;;;;0.86;91.15;101467.28;4502613;31;20114;-72
2022/01/26 06:26:24;;;;;;;38.63;16.60;;;;;;;0.99;90.11;101461.81;4502552;31;20170;-72
2022/01/26 06:28:51;;;;;;;36.58;15.80;;;;;;;1.01;91.79;101470.53;4502837;31;20505;-72
2022/01/26 06:31:19;;;;;;;35.50;14.80;;;;;;;0.99;91.67;101471.28;4501454;31;20083;-72
2022/01/26 06:33:47;;;;;;;33.78;14.55;;;;;;;1.12;91.32;101468.41;4500794;31;20091;-72
2022/01/26 06:36:16;;;;;;;29.75;13.65;;;;;;;1.05;91.13;101474.16;4500753;31;20091;-71
2022/01/26 06:38:46;;;;;;;30.10;13.50;;;;;;;1.18;90.68;101469.56;4500830;31;20147;-73
2022/01/26 06:41:21;;;;;;;30.30;13.70;;;;;;;1.37;89.80;101472.94;4500796;31;20112;-71
2022/01/26 06:43:54;;;;;;;33.50;13.62;;;;;;;1.39;89.44;101471.31;4501699;31;20114;-72
2022/01/26 06:46:28;;;;;;;30.30;14.00;;;;;;;1.28;90.82;101464.78;4502413;31;20159;-72
2022/01/26 06:49:28;;;;;;;31.33;14.23;;;;;;;1.27;91.09;101468.19;4502383;31;20491;-72
2022/01/26 06:51:45;;;;;;;38.72;15.85;;;;;;;1.38;90.33;101472.16;4501255;31;20105;-72
2022/01/26 06:54:12;;;;;;;36.72;15.77;;;;;;;1.33;90.66;101471.94;4501292;31;20099;-72
2022/01/26 06:56:40;;;;;;;34.33;15.57;;;;;;;1.38;90.52;101474.75;4502042;31;20130;-72
2022/01/26 06:59:07;;;;;;;31.23;13.52;;;;;;;1.55;89.24;101472.84;4502337;31;20562;-71
2022/01/26 07:01:34;;;;;;;34.95;14.02;;;;;;;1.51;88.84;101478.72;4500871;31;20136;-72
2022/01/26 07:04:01;;;;;;;34.53;14.87;;;;;;;1.54;88.98;101484.06;4499471;31;20118;-72
2022/01/26 07:06:29;;;;;;;29.95;14.35;;;;;;;1.54;89.22;101476.28;4502079;31;20143;-71
2022/01/26 07:08:56;;;;;;;39.03;16.85;;;;;;;1.53;88.94;101479.69;4500661;31;20126;-72
2022/01/26 07:11:24;;;;;;;40.05;16.65;;;;;;;1.47;90.00;101474.25;4501566;31;20088;-71
2022/01/26 07:13:58;;;;;;;37.25;17.37;;;;;;;1.65;88.64;101470.69;4500396;31;20084;-71
2022/01/26 07:21:56;;;;;;;38.10;16.90;;;;;;;1.90;87.76;101469.09;4501937;31;20190;-71
2022/01/26 07:24:24;;;;;;;33.10;17.08;;;;;;;1.86;88.00;101478.50;4501841;31;20123;-71
2022/01/26 07:26:54;;;;;;;33.80;16.48;;;;;;;1.85;88.02;101478.44;4501595;31;20099;-72
2022/01/26 07:29:24;;;;;;;39.50;16.70;;;;;;;1.87;88.19;101467.28;4502009;31;20216;-72
2022/01/26 07:31:52;;;;;;;40.12;15.82;;;;;;;1.91;87.72;101469.19;4501777;31;20112;-71
2022/01/26 07:34:20;;;;;;;31.08;14.25;;;;;;;2.07;86.85;101468.06;4501397;31;20092;-71
2022/01/26 07:36:50;;;;;;;37.17;15.82;;;;;;;2.12;86.96;101461.34;4502046;31;20107;-71
2022/01/26 07:39:28;;;;;;;33.78;14.38;;;;;;;2.31;85.58;101473.34;4502017;31;20182;-71
2022/01/26 07:41:57;;;;;;;28.92;13.65;;;;;;;2.49;84.93;101465.38;4501898;31;20080;-71
2022/01/26 07:44:24;;;;;;;32.60;15.32;;;;;;;2.54;85.66;101466.44;4501938;31;20496;-71
2022/01/26 07:46:51;;;;;;;30.85;15.30;;;;;;;2.75;84.47;101476.75;4501857;31;20104;-72
2022/01/26 07:49:19;;;;;;;24.80;12.32;;;;;;;2.74;84.52;101474.09;4501626;31;20195;-71
2022/01/26 07:51:49;;;;;;;29.25;13.40;;;;;;;2.75;84.70;101478.47;4499342;31;20148;-72
2022/01/26 07:54:18;;;;;;;30.20;13.35;;;;;;;2.92;84.13;101469.56;4493228;31;20133;-71
2022/01/26 07:56:46;;;;;;;31.20;13.00;;;;;;;2.92;83.93;101464.37;4489648;31;20482;-70
2022/01/26 07:59:14;;;;;;;19.60;9.45;;;;;;;2.90;83.81;101472.94;4484369;31;20519;-72
2022/01/26 08:01:41;;;;;;;27.92;9.60;;;;;;;2.92;82.26;101477.37;4484647;31;20342;-71
2022/01/26 08:04:09;;;;;;;18.62;9.05;;;;;;;3.02;82.18;101468.19;4485726;31;20503;-71
2022/01/26 08:06:39;;;;;;;22.00;8.80;;;;;;;2.95;82.63;101466.22;4485815;31;20151;-70
2022/01/26 08:09:06;;;;;;;17.52;7.97;;;;;;;2.92;82.32;101466.09;4485970;31;20532;-70
2022/01/26 08:11:33;;;;;;;15.07;8.10;;;;;;;3.04;81.45;101472.62;4486117;31;20475;-72
2022/01/26 08:14:00;;;;;;;15.57;8.52;;;;;;;3.19;81.03;101468.81;4491267;31;20096;-72
2022/01/26 08:16:28;;;;;;;28.00;11.00;;;;;;;3.01;81.38;101467.31;4487841;31;20549;-72
2022/01/26 08:18:55;;;;;;;65.50;16.52;;;;;;;3.08;81.51;101465.81;4485554;31;20164;-72
2022/01/26 08:21:22;;;;;;;25.58;10.93;;;;;;;3.10;81.13;101465.03;4494763;31;20100;-72
2022/01/26 08:23:49;;;;;;;17.55;8.45;;;;;;;3.08;81.18;101468.44;4492796;31;20130;-72
2022/01/26 08:26:24;;;;;;;20.75;9.05;;;;;;;3.22;80.29;101469.81;4490981;31;20201;-72
2022/01/26 08:28:55;;;;;;;16.60;7.85;;;;;;;3.18;80.55;101469.62;4493242;31;20107;-72
2022/01/26 08:31:22;;;;;;;16.23;7.70;;;;;;;3.30;79.84;101463.13;4500251;31;20160;-71
2022/01/26 08:33:50;;;;;;;21.70;9.05;;;;;;;3.35;79.54;101458.94;4500264;31;20325;-72
2022/01/26 08:36:17;;;;;;;16.65;9.35;;;;;;;3.29;79.84;101458.78;4500868;31;20092;-71
2022/01/26 08:38:44;;;;;;;21.30;8.82;;;;;;;3.40;79.55;101464.34;4500782;31;20146;-72
2022/01/26 08:41:14;;;;;;;20.45;9.15;;;;;;;3.47;79.34;101462.84;4499956;31;20480;-72
2022/01/26 08:43:41;;;;;;;17.67;9.25;;;;;;;3.66;78.24;101469.56;4500517;31;20092;-71
2022/01/26 08:46:08;;;;;;;16.20;8.15;;;;;;;3.32;79.59;101469.28;4492939;31;20107;-72
2022/01/26 08:48:35;;;;;;;16.90;8.05;;;;;;;3.62;78.41;101480.72;4491376;31;20099;-73
2022/01/26 08:51:02;;;;;;;17.92;8.10;;;;;;;3.40;78.27;101481.69;4491255;31;20080;-72
2022/01/26 08:53:30;;;;;;;15.45;7.53;;;;;;;3.51;78.36;101476.03;4489610;31;20168;-73
2022/01/26 08:55:58;;;;;;;16.37;8.38;;;;;;;3.55;77.88;101487.44;4481212;31;20353;-73
2022/01/26 08:58:26;;;;;;;17.42;8.13;;;;;;;3.50;78.32;101489.00;4485577;31;20164;-72
2022/01/26 09:00:54;;;;;;;17.40;7.22;;;;;;;3.49;77.96;101485.50;4485445;31;20492;-71
2022/01/26 09:03:22;;;;;;;18.50;9.18;;;;;;;3.63;77.72;101491.19;4485124;31;20087;-72
2022/01/26 09:05:49;;;;;;;16.05;8.35;;;;;;;3.49;78.15;101485.50;4485422;31;20088;-72
2022/01/26 09:08:18;;;;;;;19.50;8.93;;;;;;;3.59;77.77;101489.31;4483813;31;20104;-72
2022/01/26 09:10:46;;;;;;;19.90;9.50;;;;;;;3.76;77.00;101497.69;4484551;31;20155;-72
2022/01/26 09:13:13;;;;;;;18.37;8.43;;;;;;;3.66;77.29;101487.78;4485336;31;20092;-71
2022/01/26 09:15:41;;;;;;;19.65;9.43;;;;;;;3.70;77.04;101487.94;4485117;31;20115;-72
2022/01/26 09:18:13;;;;;;;16.37;8.65;;;;;;;3.76;76.63;101485.56;4483793;31;20152;-71
2022/01/26 09:20:41;;;;;;;14.52;7.35;;;;;;;3.95;76.28;101478.31;4484344;31;20484;-70
2022/01/26 09:23:08;;;;;;;15.25;7.30;;;;;;;4.04;75.98;101476.03;4483331;31;20409;-69
2022/01/26 09:25:35;;;;;;;16.98;7.97;;;;;;;3.92;75.51;101471.31;4484826;31;20084;-70
2022/01/26 09:28:03;;;;;;;14.13;7.68;;;;;;;4.14;75.03;101480.72;4492867;31;20590;-70
2022/01/26 09:30:30;;;;;;;16.73;7.62;;;;;;;4.28;74.85;101482.03;4490093;31;20083;-71
2022/01/26 09:32:57;;;;;;;15.70;7.68;;;;;;;4.12;74.30;101482.38;4495623;31;20109;-71
2022/01/26 09:35:24;;;;;;;13.85;7.30;;;;;;;3.91;75.38;101473.84;4491074;31;20194;-70
2022/01/26 09:37:51;;;;;;;16.12;7.75;;;;;;;4.04;74.94;101479.53;4495132;31;20160;-71
2022/01/26 09:40:18;;;;;;;21.77;7.97;;;;;;;4.11;75.14;101474.50;4495951;31;20099;-71
2022/01/26 09:42:49;;;;;;;15.30;7.82;;;;;;;4.32;74.07;101462.12;4498593;31;20096;-71
2022/01/26 09:45:17;;;;;;;9.02;4.80;;;;;;;4.27;74.73;101461.97;4498877;31;20788;-70
2022/01/26 09:47:46;;;;;;;8.27;5.40;;;;;;;4.29;73.75;101452.47;4499339;31;20146;-71
2022/01/26 09:50:31;;;;;;;14.00;6.50;;;;;;;4.23;73.78;101454.00;4496175;31;20138;-71
2022/01/26 09:52:59;;;;;;;10.88;6.03;;;;;;;3.97;74.83;101453.19;4471588;31;20092;-72
2022/01/26 09:55:26;;;;;;;13.15;6.05;;;;;;;4.06;74.66;101443.03;4479562;31;20517;-73
2022/01/26 09:57:58;;;;;;;15.60;6.90;;;;;;;4.02;74.73;101447.28;4494097;31;20284;-71
2022/01/26 10:00:27;;;;;;;15.55;6.57;;;;;;;4.03;74.73;101448.19;4493130;31;20663;-70
2022/01/26 10:03:00;;;;;;;16.08;6.30;;;;;;;4.10;74.77;101447.53;4491750;31;20163;-70
2022/01/26 10:05:45;;;;;;;16.35;7.10;;;;;;;4.12;74.16;101450.19;4491399;31;20123;-70
2022/01/26 10:19:08;;;;;;;13.68;6.18;;;;;;;4.38;72.89;101425.78;4484144;31;20101;-70
2022/01/26 10:21:51;;;;;;;15.15;7.50;;;;;;;4.42;72.94;101424.16;4484277;31;20106;-71
2022/01/26 10:24:20;;;;;;;12.25;7.30;;;;;;;4.48;72.88;101427.81;4484376;31;20141;-70
2022/01/26 10:26:49;;;;;;;11.10;5.95;;;;;;;4.70;72.44;101421.50;4484235;31;20499;-71
2022/01/26 10:29:17;;;;;;;20.45;9.52;;;;;;;4.57;72.39;101422.00;4484380;31;20134;-71
2022/01/26 10:31:44;;;;;;;19.23;8.18;;;;;;;4.62;71.91;101424.72;4470077;31;20393;-71
2022/01/26 10:34:13;;;;;;;14.87;8.05;;;;;;;4.51;72.42;101427.91;4484090;31;20100;-71
2022/01/26 10:36:40;;;;;;;16.55;7.75;;;;;;;4.57;72.30;101413.28;4469645;31;20412;-71
2022/01/26 10:39:11;;;;;;;14.43;5.32;;;;;;;4.57;72.18;101423.72;4484051;31;20155;-71
2022/01/26 10:41:40;;;;;;;21.50;9.45;;;;;;;4.61;72.24;101409.91;4484378;31;20084;-70
2022/01/26 10:44:08;;;;;;;19.83;8.80;;;;;;;4.75;72.00;101406.84;4484224;31;20104;-72
2022/01/26 10:46:39;;;;;;;15.63;7.53;;;;;;;4.86;72.16;101401.03;4493601;31;20100;-71
2022/01/26 10:54:37;;;;;;;17.30;7.95;;;;;;;4.80;70.96;101401.75;4501380;31;20084;-72
2022/01/26 10:57:07;;;;;;;18.65;8.43;;;;;;;4.49;72.28;101395.69;4503159;31;20091;-70
2022/01/26 10:59:37;;;;;;;14.32;7.75;;;;;;;4.74;71.52;101402.47;4503286;31;20088;-70
2022/01/26 11:02:05;;;;;;;13.60;7.15;;;;;;;4.64;71.74;101403.06;4502887;31;20087;-71
2022/01/26 11:04:34;;;;;;;14.02;7.55;;;;;;;4.76;72.42;101399.91;4503024;31;20679;-71
2022/01/26 11:07:04;;;;;;;16.58;7.15;;;;;;;5.02;71.74;101406.75;4502376;31;20092;-71
2022/01/26 11:09:35;;;;;;;16.27;8.18;;;;;;;5.26;70.00;101406.50;4502047;31;20134;-71
2022/01/26 11:12:05;;;;;;;13.38;7.20;;;;;;;5.41;70.46;101398.19;4503161;31;20076;-71
2022/01/26 11:14:50;;;;;;;15.18;7.43;;;;;;;5.78;69.93;101408.66;4503015;31;20114;-71
2022/01/26 11:17:28;;;;;;;12.02;6.87;;;;;;;5.37;68.48;101398.03;4498835;31;20213;-71
2022/01/26 11:19:57;;;;;;;15.18;6.78;;;;;;;5.38;69.64;101405.06;4489011;31;20163;-70
2022/01/26 11:22:31;;;;;;;17.65;6.95;;;;;;;5.42;69.54;101406.91;4487060;31;20117;-71
2022/01/26 11:25:11;;;;;;;12.82;7.28;;;;;;;5.28;69.90;101417.00;4486974;31;20152;-71
2022/01/26 11:27:41;;;;;;;13.90;6.78;;;;;;;5.56;68.82;101402.91;4496591;31;20119;-70
2022/01/26 11:30:16;;;;;;;15.43;7.10;;;;;;;5.48;68.39;101400.09;4495444;31;20099;-72
2022/01/26 11:32:59;;;;;;;11.80;6.45;;;;;;;5.32;68.57;101411.00;4491750;31;20083;-71
2022/01/26 11:35:29;;;;;;;10.85;7.22;;;;;;;5.16;69.44;101399.28;4498549;31;20152;-72
2022/01/26 11:38:39;;;;;;;16.52;7.50;;;;;;;5.18;69.09;101402.78;4494639;31;20127;-72
2022/01/26 11:46:31;;;;;;;13.75;6.87;;;;;;;4.87;70.00;101387.13;4486504;31;20450;-72
2022/01/26 11:49:07;;;;;;;13.75;5.90;;;;;;;4.87;70.19;101390.63;4486678;31;20123;-72
2022/01/26 11:52:05;;;;;;;15.30;7.50;;;;;;;4.87;69.70;101387.13;4485943;31;20087;-72
2022/01/26 11:54:52;;;;;;;14.18;6.57;;;;;;;4.77;70.74;101384.28;4469519;31;20397;-72
2022/01/26 11:57:42;;;;;;;17.83;6.20;;;;;;;5.06;70.21;101389.41;4486664;31;20103;-72
2022/01/26 12:00:14;;;;;;;9.13;5.18;;;;;;;5.20;68.48;101390.66;4485873;31;20089;-74
2022/01/26 12:05:17;;;;;;;12.63;6.03;;;;;;;6.40;64.95;101385.69;4486131;31;20151;-73
2022/01/26 12:08:00;;;;;;;12.85;6.20;;;;;;;7.82;59.72;101392.66;4485961;31;20092;-73
2022/01/26 12:10:32;;;;;;;11.02;5.75;;;;;;;7.62;59.13;101390.56;4486346;31;20797;-73
2022/01/26 12:13:03;;;;;;;12.45;6.50;;;;;;;6.88;61.28;101384.88;4486138;31;20444;-72
2022/01/26 12:15:39;;;;;;;10.98;6.75;;;;;;;6.17;64.01;101386.03;4486149;31;20076;-73
2022/01/26 12:42:57;;;;;;;;;;;;;;;5.39;67.70;101363.25;4484417;31;20091;-74
2022/01/26 12:45:47;;;;;;;13.48;5.80;;;;;;;5.42;67.06;101358.13;4483974;31;19995;-74
2022/01/26 12:48:16;;;;;;;11.27;4.78;;;;;;;5.38;67.24;101360.62;4485413;31;20080;-74
2022/01/26 12:50:44;;;;;;;10.32;5.90;;;;;;;5.46;66.92;101359.06;4488043;31;20423;-74
2022/01/26 12:53:11;;;;;;;11.60;6.55;;;;;;;5.54;66.80;101347.06;4493319;31;20416;-73
2022/01/26 12:55:39;;;;;;;11.38;6.10;;;;;;;5.38;66.82;101350.16;4493605;31;20187;-74
2022/01/26 12:58:06;;;;;;;10.60;5.50;;;;;;;5.32;67.04;101350.88;4491398;31;20100;-73
2022/01/26 13:00:38;;;;;;;10.40;5.47;;;;;;;5.38;67.05;101350.16;4496077;31;20092;-73
2022/01/26 13:03:11;;;;;;;11.68;5.82;;;;;;;5.36;67.13;101339.66;4479115;31;20199;-72
2022/01/26 13:05:39;;;;;;;12.27;6.00;;;;;;;5.34;67.13;101357.06;4493679;31;20092;-73
2022/01/26 13:08:08;;;;;;;12.15;6.60;;;;;;;5.49;66.55;101348.69;4492528;31;20088;-72
2022/01/26 13:10:36;;;;;;;16.37;6.68;;;;;;;5.66;66.22;101343.88;4492851;31;20170;-73
2022/01/26 13:13:20;;;;;;;10.85;6.12;;;;;;;5.97;65.41;101343.75;4493519;31;20164;-72
2022/01/26 13:15:58;;;;;;;12.18;5.78;;;;;;;5.86;64.84;101350.44;4491333;31;20491;-72
2022/01/26 13:18:57;;;;;;;10.05;5.00;;;;;;;5.79;65.09;101347.62;4493213;31;20156;-71
2022/01/26 13:27:24;;;;;;;14.30;6.90;;;;;;;5.81;65.69;101340.72;4491503;31;20121;-72
2022/01/26 13:30:09;;;;;;;18.25;7.15;;;;;;;5.63;65.56;101336.84;4492699;31;20123;-72
2022/01/26 13:51:40;;;;;;;16.70;7.97;;;;;;;4.81;68.34;101343.47;4492165;31;20083;-72
2022/01/26 14:01:49;;;;;;;14.30;6.85;;;;;;;4.68;68.90;101352.69;4491539;31;20119;-72
2022/01/26 14:04:18;;;;;;;13.30;5.30;;;;;;;4.77;68.61;101344.22;4487356;31;20103;-71
2022/01/26 14:06:47;;;;;;;15.27;5.85;;;;;;;4.70;68.85;101352.72;4492983;31;20103;-72
2022/01/26 14:09:15;;;;;;;12.60;6.37;;;;;;;4.42;69.63;101344.16;4491845;31;20444;-72
2022/01/26 14:11:46;;;;;;;15.05;6.10;;;;;;;4.43;69.70;101351.13;4491705;31;20114;-74
2022/01/26 14:14:21;;;;;;;12.37;5.75;;;;;;;4.45;69.71;101353.75;4484436;31;20478;-72
2022/01/26 14:16:57;;;;;;;14.57;6.28;;;;;;;4.58;69.24;101347.19;4484293;31;20595;-72
2022/01/26 14:27:48;;;;;;;15.98;6.22;;;;;;;4.02;70.99;101334.25;4420658;32;20106;-71
2022/01/26 14:33:14;;;;;;;21.70;8.00;;;;;;;3.78;72.13;101337.00;4486992;31;20577;-72
2022/01/26 15:41:21;;;;;;;17.98;7.90;;;;;;;2.27;79.53;101354.44;4467143;31;20151;-72
2022/01/26 15:44:04;;;;;;;21.83;8.38;;;;;;;2.15;80.39;101357.44;4485818;31;20821;-72